createdAt,value
2022-08-06T00:00:07.177Z,12.38
2022-08-06T00:02:42.408Z,12.43
2022-08-06T00:05:17.812Z,12.55
2022-08-06T00:07:53.374Z,13.63
2022-08-06T00:10:29.712Z,13.70
2022-08-06T00:13:02.084Z,13.07
2022-08-06T00:16:08.305Z,13.02
2022-08-06T00:18:26.682Z,13.38
2022-08-06T00:20:55.873Z,13.30
2022-08-06T00:23:25.704Z,13.63
2022-08-06T00:25:55.023Z,13.10
2022-08-06T00:28:31.917Z,13.50
2022-08-06T00:31:16.806Z,13.07
2022-08-06T00:33:53.816Z,13.45
2022-08-06T00:36:30.379Z,13.30
2022-08-06T00:39:01.576Z,13.15
2022-08-06T00:41:42.227Z,12.90
2022-08-06T00:44:30.808Z,12.57
2022-08-06T00:47:11.704Z,12.77
2022-08-06T00:49:54.505Z,12.23
2022-08-06T00:52:26.403Z,13.15
2022-08-06T00:54:59.014Z,13.00
2022-08-06T00:57:30.119Z,13.63
2022-08-06T00:59:59.647Z,13.27
2022-08-06T01:02:35.439Z,13.55
2022-08-06T01:07:54.869Z,14.27
2022-08-06T01:10:31.094Z,14.00
2022-08-06T01:13:23.641Z,13.88
2022-08-06T01:16:08.273Z,13.60
2022-08-06T01:18:58.529Z,13.05
2022-08-06T01:22:29.472Z,13.35
2022-08-06T01:24:51.014Z,13.65
2022-08-06T01:27:45.526Z,13.75
2022-08-06T01:30:20.284Z,13.88
2022-08-06T01:32:58.111Z,14.02
2022-08-06T01:35:47.621Z,13.00
2022-08-06T01:38:28.863Z,13.38
2022-08-06T01:41:02.661Z,13.63
2022-08-06T01:44:04.917Z,14.05
2022-08-06T01:46:27.366Z,13.63
2022-08-06T01:48:59.216Z,13.45
2022-08-06T01:52:14.400Z,13.07
2022-08-06T01:54:32.195Z,14.70
2022-08-06T01:57:04.730Z,14.07
2022-08-06T01:59:44.840Z,13.43
2022-08-06T02:02:23.252Z,14.32
2022-08-06T02:05:09.053Z,13.52
2022-08-06T02:08:36.845Z,13.55
2022-08-06T02:10:36.065Z,14.07
2022-08-06T02:13:07.885Z,14.20
2022-08-06T02:15:58.655Z,13.60
2022-08-06T02:18:36.977Z,13.73
2022-08-06T02:21:19.146Z,13.35
2022-08-06T02:24:03.130Z,13.30
2022-08-06T02:26:35.981Z,12.98
2022-08-06T02:29:14.062Z,14.30
2022-08-06T02:31:50.449Z,13.43
2022-08-06T02:34:29.820Z,13.82
2022-08-06T02:37:08.967Z,13.27
2022-08-06T02:39:51.687Z,13.98
2022-08-06T02:42:29.114Z,13.60
2022-08-06T02:45:05.033Z,13.77
2022-08-06T02:47:55.890Z,13.77
2022-08-06T02:50:36.355Z,13.85
2022-08-06T02:53:08.556Z,14.15
2022-08-06T02:55:57.485Z,14.20
2022-08-06T02:58:36.632Z,14.23
2022-08-06T03:01:15.457Z,14.40
2022-08-06T03:03:59.415Z,14.35
2022-08-06T03:06:32.720Z,13.93
2022-08-06T03:09:05.470Z,14.98
2022-08-06T03:11:39.135Z,14.13
2022-08-06T03:14:31.753Z,14.23
2022-08-06T03:17:01.622Z,14.45
2022-08-06T03:19:57.302Z,15.00
2022-08-06T03:22:35.250Z,13.57
2022-08-06T03:25:10.621Z,13.77
2022-08-06T03:27:44.645Z,14.15
2022-08-06T03:30:30.423Z,14.45
2022-08-06T03:33:07.801Z,13.35
2022-08-06T03:35:57.626Z,13.25
2022-08-06T03:38:29.713Z,14.05
2022-08-06T03:41:02.066Z,13.68
2022-08-06T03:43:56.557Z,13.05
2022-08-06T03:46:26.544Z,12.93
2022-08-06T03:48:59.697Z,12.98
2022-08-06T03:51:52.159Z,11.63
2022-08-06T03:54:30.710Z,11.70
2022-08-06T03:57:09.875Z,12.50
2022-08-06T03:59:43.458Z,12.07
2022-08-06T04:02:37.045Z,12.88
2022-08-06T04:05:22.600Z,12.32
2022-08-06T04:07:58.582Z,12.60
2022-08-06T04:10:34.862Z,12.43
2022-08-06T04:14:03.305Z,12.23
2022-08-06T04:16:04.878Z,12.38
2022-08-06T04:18:41.797Z,12.75
2022-08-06T04:21:20.971Z,12.43
2022-08-06T04:23:54.170Z,12.18
2022-08-06T04:26:29.195Z,11.60
2022-08-06T04:29:02.979Z,12.43
2022-08-06T04:32:11.514Z,12.70
2022-08-06T04:34:28.614Z,12.32
2022-08-06T04:37:13.374Z,12.45
2022-08-06T04:39:50.017Z,12.57
2022-08-06T04:42:20.780Z,12.35
2022-08-06T04:44:56.171Z,12.65
2022-08-06T04:47:41.625Z,13.02
2022-08-06T04:50:17.868Z,13.00
2022-08-06T04:52:53.085Z,12.50
2022-08-06T04:55:33.520Z,12.45
2022-08-06T04:58:11.369Z,12.68
2022-08-06T05:00:59.779Z,12.43
2022-08-06T05:04:06.574Z,12.55
2022-08-06T05:06:26.338Z,12.20
2022-08-06T05:09:02.028Z,12.45
2022-08-06T05:11:57.349Z,11.73
2022-08-06T05:14:32.893Z,11.85
2022-08-06T05:17:08.584Z,11.15
2022-08-06T05:19:44.265Z,11.73
2022-08-06T05:22:19.768Z,12.45
2022-08-06T05:25:15.241Z,11.63
2022-08-06T05:28:03.988Z,10.52
2022-08-06T05:30:45.738Z,11.20
2022-08-06T05:33:24.560Z,10.25
2022-08-06T05:36:01.470Z,10.65
2022-08-06T05:38:36.911Z,10.35
2022-08-06T05:41:09.283Z,9.85
2022-08-06T05:44:00.244Z,9.13
2022-08-06T05:46:35.933Z,9.35
2022-08-06T05:49:57.632Z,9.77
2022-08-06T05:52:08.409Z,9.50
2022-08-06T05:54:51.084Z,9.73
2022-08-06T05:57:40.760Z,9.73
2022-08-06T06:00:42.439Z,10.40
2022-08-06T06:03:09.681Z,9.95
2022-08-06T06:06:06.727Z,9.75
2022-08-06T06:08:57.561Z,9.53
2022-08-06T06:11:55.048Z,9.73
2022-08-06T06:14:32.255Z,9.60
2022-08-06T06:17:18.209Z,10.23
2022-08-06T06:19:58.710Z,10.95
2022-08-06T06:22:35.183Z,9.45
2022-08-06T06:25:10.046Z,9.98
2022-08-06T06:27:48.355Z,9.80
2022-08-06T06:30:39.348Z,9.68
2022-08-06T06:33:36.468Z,9.60
2022-08-06T06:36:20.909Z,9.82
2022-08-06T06:39:00.429Z,9.73
2022-08-06T06:41:37.830Z,9.57
2022-08-06T06:44:17.634Z,9.48
2022-08-06T06:46:57.452Z,8.88
2022-08-06T06:49:59.212Z,8.85
2022-08-06T06:52:33.993Z,9.25
2022-08-06T06:55:19.120Z,8.68
2022-08-06T06:58:02.116Z,9.27
2022-08-06T07:00:46.187Z,9.95
2022-08-06T07:03:17.712Z,10.15
2022-08-06T07:06:05.780Z,9.30
2022-08-06T07:08:45.582Z,9.85
2022-08-06T07:11:20.942Z,9.35
2022-08-06T07:13:52.975Z,9.82
2022-08-06T07:16:35.201Z,9.13
2022-08-06T07:19:10.937Z,9.32
2022-08-06T07:21:51.627Z,9.30
2022-08-06T07:24:36.834Z,8.43
2022-08-06T07:27:15.297Z,8.38
2022-08-06T07:29:59.433Z,8.55
2022-08-06T07:32:40.289Z,8.88
2022-08-06T07:35:15.449Z,8.73
2022-08-06T07:37:52.628Z,8.10
2022-08-06T07:40:29.420Z,8.25
2022-08-06T07:43:04.413Z,7.97
2022-08-06T07:45:54.830Z,8.77
2022-08-06T07:48:32.421Z,7.72
2022-08-06T07:51:05.268Z,8.32
2022-08-06T07:53:57.508Z,8.05
2022-08-06T07:56:30.230Z,8.50
2022-08-06T07:59:01.506Z,7.80
2022-08-06T08:01:36.559Z,8.38
2022-08-06T08:04:35.340Z,8.52
2022-08-06T08:07:13.451Z,7.90
2022-08-06T08:10:02.365Z,8.95
2022-08-06T08:12:36.361Z,8.20
2022-08-06T08:15:18.403Z,7.63
2022-08-06T08:17:57.499Z,9.02
2022-08-06T08:20:32.670Z,7.30
2022-08-06T08:23:05.813Z,7.55
2022-08-06T08:25:40.402Z,7.72
2022-08-06T08:28:15.195Z,7.40
2022-08-06T08:30:49.991Z,6.80
2022-08-06T08:33:20.420Z,6.65
2022-08-06T08:36:01.074Z,7.18
2022-08-06T08:38:32.621Z,7.32
2022-08-06T08:41:06.866Z,7.30
2022-08-06T08:43:59.894Z,6.80
2022-08-06T08:46:37.873Z,6.78
2022-08-06T08:49:21.416Z,7.13
2022-08-06T08:51:53.893Z,6.68
2022-08-06T08:54:25.379Z,7.00
2022-08-06T08:57:06.464Z,6.47
2022-08-06T09:00:00.070Z,6.38
2022-08-06T09:02:34.157Z,6.72
2022-08-06T09:05:03.957Z,6.35
2022-08-06T09:07:36.431Z,7.20
2022-08-06T09:10:12.316Z,6.43
2022-08-06T09:12:50.141Z,6.72
2022-08-06T09:15:20.265Z,6.53
2022-08-06T09:18:25.791Z,6.90
2022-08-06T09:20:41.259Z,6.25
2022-08-06T09:23:16.688Z,7.00
2022-08-06T09:25:49.822Z,6.43
2022-08-06T09:28:36.264Z,6.93
2022-08-06T09:31:09.886Z,6.88
2022-08-06T09:34:32.209Z,6.32
2022-08-06T09:36:43.958Z,7.15
2022-08-06T09:39:15.991Z,7.05
2022-08-06T09:41:53.657Z,6.60
2022-08-06T09:44:37.561Z,6.15
2022-08-06T09:47:16.252Z,5.75
2022-08-06T09:50:00.564Z,6.10
2022-08-06T09:52:30.641Z,6.93
2022-08-06T09:55:00.976Z,6.35
2022-08-06T09:57:46.390Z,6.55
2022-08-06T10:00:28.113Z,6.43
2022-08-06T10:02:59.393Z,6.78
2022-08-06T10:05:50.439Z,6.13
2022-08-06T10:08:22.540Z,7.53
2022-08-06T10:10:53.713Z,7.15
2022-08-06T10:13:25.951Z,7.03
2022-08-06T10:16:01.157Z,6.68
2022-08-06T10:18:54.974Z,6.90
2022-08-06T10:21:40.114Z,6.47
2022-08-06T10:24:13.279Z,6.18
2022-08-06T10:26:44.773Z,6.13
2022-08-06T10:29:18.644Z,6.35
2022-08-06T10:31:56.630Z,7.05
2022-08-06T10:34:31.025Z,6.75
2022-08-06T10:37:47.345Z,6.25
2022-08-06T10:40:09.457Z,6.32
2022-08-06T10:42:41.564Z,6.38
2022-08-06T10:45:14.229Z,6.68
2022-08-06T10:49:01.633Z,6.53
2022-08-06T10:50:52.811Z,6.25
2022-08-06T10:54:00.578Z,7.18
2022-08-06T10:56:21.875Z,6.88
2022-08-06T10:59:02.849Z,6.10
2022-08-06T11:01:47.275Z,6.88
2022-08-06T11:04:34.141Z,6.35
2022-08-06T11:08:09.041Z,6.68
2022-08-06T11:10:41.705Z,6.40
2022-08-06T11:13:20.008Z,6.38
2022-08-06T11:15:50.328Z,6.45
2022-08-06T11:18:22.122Z,6.32
2022-08-06T11:21:01.942Z,6.03
2022-08-06T11:23:57.773Z,6.13
2022-08-06T11:26:44.156Z,6.45
2022-08-06T11:29:15.974Z,6.95
2022-08-06T11:31:56.375Z,6.55
2022-08-06T11:34:57.749Z,6.07
2022-08-06T11:38:03.515Z,6.00
2022-08-06T11:41:06.341Z,6.43
2022-08-06T11:44:09.145Z,6.13
2022-08-06T11:46:42.935Z,5.85
2022-08-06T11:49:24.733Z,5.90
2022-08-06T11:52:06.177Z,6.00
2022-08-06T11:54:59.495Z,5.88
2022-08-06T11:57:41.448Z,5.70
2022-08-06T12:00:21.818Z,5.68
2022-08-06T12:02:56.907Z,6.28
2022-08-06T12:05:43.736Z,6.25
2022-08-06T12:08:42.741Z,6.05
2022-08-06T12:11:36.290Z,6.18
2022-08-06T12:14:49.233Z,5.70
2022-08-06T12:17:21.141Z,6.00
2022-08-06T12:20:01.626Z,5.43
2022-08-06T12:22:35.571Z,6.18
2022-08-06T12:25:11.380Z,6.10
2022-08-06T12:27:50.971Z,6.18
2022-08-06T12:33:12.356Z,6.00
2022-08-06T12:35:52.066Z,5.90
2022-08-06T12:38:25.053Z,5.53
2022-08-06T12:40:57.023Z,6.03
2022-08-06T12:43:46.240Z,5.93
2022-08-06T12:46:21.689Z,6.20
2022-08-06T12:48:53.366Z,5.60
2022-08-06T12:57:58.757Z,6.18
2022-08-06T13:00:29.532Z,6.35
2022-08-06T13:03:00.391Z,6.15
2022-08-06T13:05:31.546Z,6.60
2022-08-06T13:08:06.626Z,5.75
2022-08-06T13:10:37.613Z,6.07
2022-08-06T13:14:12.345Z,6.13
2022-08-06T13:16:04.402Z,6.20
2022-08-06T13:18:41.557Z,6.15
2022-08-06T13:21:21.377Z,6.10
2022-08-06T13:23:52.936Z,6.38
2022-08-06T13:26:27.086Z,5.72
2022-08-06T13:30:29.410Z,6.10
2022-08-06T13:32:11.052Z,5.82
2022-08-06T13:34:59.541Z,5.90
2022-08-06T13:37:55.564Z,5.95
2022-08-06T13:40:39.925Z,5.43
2022-08-06T13:43:40.182Z,5.20
2022-08-06T13:46:16.874Z,5.28
2022-08-06T13:48:52.723Z,5.60
2022-08-06T13:51:27.550Z,5.68
2022-08-06T13:53:59.494Z,5.55
2022-08-06T13:56:33.981Z,8.27
2022-08-06T13:59:05.058Z,6.63
2022-08-06T14:01:44.992Z,6.65
2022-08-06T14:04:18.353Z,5.97
2022-08-06T14:06:48.639Z,6.35
2022-08-06T14:09:22.218Z,6.10
2022-08-06T14:11:54.626Z,5.55
2022-08-06T14:14:27.479Z,6.15
2022-08-06T14:17:02.664Z,5.75
2022-08-06T14:20:16.686Z,5.80
2022-08-06T14:22:25.985Z,5.97
2022-08-06T14:24:55.689Z,5.57
2022-08-06T14:27:25.906Z,5.32
2022-08-06T14:30:28.602Z,5.47
2022-08-06T14:32:47.952Z,5.55
2022-08-06T14:35:19.894Z,4.97
2022-08-06T14:37:55.341Z,5.60
2022-08-06T14:40:51.731Z,5.60
2022-08-06T14:43:42.339Z,5.30
2022-08-06T14:46:26.194Z,5.47
2022-08-06T14:51:38.051Z,9.48
2022-08-06T14:54:19.147Z,7.78
2022-08-06T14:57:00.749Z,6.60
2022-08-06T14:59:42.945Z,6.13
2022-08-06T15:02:18.642Z,6.82
2022-08-06T15:04:52.573Z,5.90
2022-08-06T15:07:26.821Z,8.15
2022-08-06T15:10:26.406Z,6.80
2022-08-06T15:13:01.188Z,6.32
2022-08-06T15:15:36.780Z,6.65
2022-08-06T15:18:21.132Z,6.25
2022-08-06T15:21:10.547Z,5.68
2022-08-06T15:23:54.758Z,6.68
2022-08-06T15:26:46.560Z,6.15
2022-08-06T15:29:16.263Z,6.35
2022-08-06T15:31:46.717Z,7.65
2022-08-06T15:34:20.009Z,6.97
2022-08-06T15:37:01.352Z,6.35
2022-08-06T15:39:51.097Z,11.75
2022-08-06T15:42:23.841Z,7.53
2022-08-06T15:47:31.929Z,7.07
2022-08-06T15:50:06.175Z,6.80
2022-08-06T15:52:43.755Z,6.45
2022-08-06T15:55:16.256Z,7.32
2022-08-06T15:58:04.602Z,6.88
2022-08-06T16:00:38.348Z,6.75
2022-08-06T16:03:08.691Z,7.72
2022-08-06T16:06:12.152Z,6.63
2022-08-06T16:08:40.455Z,6.57
2022-08-06T16:11:14.036Z,6.40
2022-08-06T16:13:45.251Z,6.40
2022-08-06T16:16:32.497Z,6.88
2022-08-06T16:19:04.293Z,7.30
2022-08-06T16:21:51.217Z,7.18
2022-08-06T16:24:22.474Z,6.63
2022-08-06T16:26:57.926Z,6.93
2022-08-06T16:29:28.937Z,6.50
2022-08-06T16:31:58.636Z,6.32
2022-08-06T16:34:36.779Z,6.35
2022-08-06T16:37:28.173Z,6.47
2022-08-06T16:40:00.923Z,6.63
2022-08-06T16:42:49.552Z,6.45
2022-08-06T16:45:23.021Z,7.43
2022-08-06T16:48:18.654Z,7.70
2022-08-06T16:50:43.673Z,7.25
2022-08-06T16:54:08.843Z,7.80
2022-08-06T16:56:05.638Z,7.88
2022-08-06T17:02:15.298Z,6.97
2022-08-06T17:04:21.620Z,7.68
2022-08-06T17:06:55.633Z,7.13
2022-08-06T17:09:25.405Z,7.53
2022-08-06T17:12:01.169Z,7.13
2022-08-06T17:14:33.427Z,7.30
2022-08-06T17:17:07.285Z,7.35
2022-08-06T17:19:41.704Z,6.82
2022-08-06T17:22:12.201Z,7.35
2022-08-06T17:24:42.494Z,7.17
2022-08-06T17:27:17.476Z,7.10
2022-08-06T17:30:09.375Z,8.00
2022-08-06T17:32:46.394Z,7.75
2022-08-06T17:35:20.852Z,6.80
2022-08-06T17:37:52.271Z,7.15
2022-08-06T17:40:31.361Z,6.90
2022-08-06T17:42:30.060Z,7.30
2022-08-06T17:43:12.971Z,7.00
2022-08-06T17:46:02.380Z,7.28
2022-08-06T17:48:38.784Z,6.55
2022-08-06T17:51:09.587Z,7.63
2022-08-06T17:53:52.714Z,7.40
2022-08-06T17:56:29.306Z,7.00
2022-08-06T17:59:17.116Z,7.10
2022-08-06T18:01:50.138Z,7.28
2022-08-06T18:04:21.226Z,6.47
2022-08-06T18:06:52.608Z,7.40
2022-08-06T18:10:07.485Z,7.38
2022-08-06T18:12:13.873Z,7.72
2022-08-06T18:14:51.985Z,8.52
2022-08-06T18:17:22.142Z,7.25
2022-08-06T18:20:12.409Z,7.30
2022-08-06T18:22:46.327Z,7.40
2022-08-06T18:25:21.579Z,8.38
2022-08-06T18:27:56.106Z,8.30
2022-08-06T18:30:46.921Z,6.68
2022-08-06T18:33:17.089Z,7.40
2022-08-06T18:35:59.769Z,7.80
2022-08-06T18:38:31.907Z,7.90
2022-08-06T18:41:14.267Z,7.38
2022-08-06T18:43:49.575Z,7.10
2022-08-06T18:47:02.237Z,7.20
2022-08-06T18:49:26.873Z,7.22
2022-08-06T18:52:02.233Z,7.93
2022-08-06T18:54:31.364Z,7.70
2022-08-06T18:57:04.116Z,7.85
2022-08-06T18:59:34.938Z,7.40
2022-08-06T19:02:14.707Z,7.88
2022-08-06T19:04:52.677Z,7.57
2022-08-06T19:07:26.934Z,7.07
2022-08-06T19:10:15.236Z,7.40
2022-08-06T19:12:45.766Z,7.75
2022-08-06T19:15:22.878Z,9.00
2022-08-06T19:18:17.068Z,9.18
2022-08-06T19:20:50.026Z,8.10
2022-08-06T19:24:03.348Z,8.45
2022-08-06T19:26:13.646Z,8.00
2022-08-06T19:28:50.473Z,8.45
2022-08-06T19:31:23.325Z,8.07
2022-08-06T19:34:15.508Z,9.18
2022-08-06T19:36:48.363Z,8.90
2022-08-06T19:39:53.699Z,9.15
2022-08-06T19:42:13.368Z,8.82
2022-08-06T19:45:03.845Z,8.38
2022-08-06T19:47:47.615Z,8.00
2022-08-06T19:50:28.232Z,8.73
2022-08-06T19:52:57.761Z,9.02
2022-08-06T19:56:06.863Z,8.32
2022-08-06T19:58:30.770Z,8.13
2022-08-06T20:01:31.240Z,9.35
2022-08-06T20:03:59.273Z,8.50
2022-08-06T20:07:01.555Z,8.93
2022-08-06T20:09:26.873Z,8.73
2022-08-06T20:12:02.748Z,9.15
2022-08-06T20:14:34.460Z,8.80
2022-08-06T20:17:04.295Z,9.80
2022-08-06T20:20:06.878Z,9.95
2022-08-06T20:22:25.822Z,10.27
2022-08-06T20:24:58.573Z,9.73
2022-08-06T20:27:38.845Z,10.27
2022-08-06T20:30:17.165Z,10.25
2022-08-06T20:32:54.103Z,10.05
2022-08-06T20:35:27.163Z,9.60
2022-08-06T20:38:03.059Z,10.18
2022-08-06T20:41:26.357Z,10.05
2022-08-06T20:44:06.801Z,10.52
2022-08-06T20:46:22.149Z,10.23
2022-08-06T20:48:52.022Z,11.70
2022-08-06T20:51:21.223Z,11.13
2022-08-06T20:53:55.857Z,10.63
2022-08-06T20:56:26.022Z,11.18
2022-08-06T20:58:55.174Z,12.65
2022-08-06T21:01:24.688Z,12.68
2022-08-06T21:05:12.873Z,12.82
2022-08-06T21:06:44.646Z,12.55
2022-08-06T21:09:16.064Z,12.73
2022-08-06T21:11:47.979Z,12.52
2022-08-06T21:14:30.389Z,12.32
2022-08-06T21:17:02.357Z,12.20
2022-08-06T21:19:41.048Z,11.98
2022-08-06T21:22:10.957Z,12.05
2022-08-06T21:24:42.048Z,11.45
2022-08-06T21:27:11.491Z,10.98
2022-08-06T21:30:08.961Z,11.88
2022-08-06T21:32:35.861Z,10.63
2022-08-06T21:35:05.970Z,10.77
2022-08-06T21:37:57.592Z,10.67
2022-08-06T21:40:29.037Z,10.65
2022-08-06T21:43:02.892Z,10.70
2022-08-06T21:45:50.337Z,10.10
2022-08-06T21:48:29.983Z,9.90
2022-08-06T21:51:00.622Z,10.32
2022-08-06T21:53:49.871Z,10.15
2022-08-06T21:56:36.509Z,9.65
2022-08-06T21:59:10.213Z,10.25
2022-08-06T22:02:10.409Z,10.80
2022-08-06T22:04:37.489Z,10.15
2022-08-06T22:07:22.767Z,10.93
2022-08-06T22:09:54.429Z,10.63
2022-08-06T22:12:36.510Z,10.60
2022-08-06T22:15:11.729Z,11.68
2022-08-06T22:18:01.305Z,10.30
2022-08-06T22:20:30.934Z,11.50
2022-08-06T22:23:02.033Z,10.85
2022-08-06T22:25:32.089Z,10.82
2022-08-06T22:28:05.496Z,11.52
2022-08-06T22:30:36.958Z,12.02
2022-08-06T22:33:10.958Z,12.18
2022-08-06T22:35:57.132Z,11.75
2022-08-06T22:38:31.906Z,11.73
2022-08-06T22:41:01.904Z,12.65
2022-08-06T22:43:57.102Z,12.88
2022-08-06T22:46:22.397Z,12.48
2022-08-06T22:48:51.784Z,11.77
2022-08-06T22:51:28.699Z,11.43
2022-08-06T22:54:29.524Z,10.85
2022-08-06T22:57:04.367Z,11.05
2022-08-06T23:00:11.145Z,11.65
2022-08-06T23:02:26.476Z,11.63
2022-08-06T23:04:55.923Z,11.23
2022-08-06T23:07:26.368Z,10.82
2022-08-06T23:10:14.724Z,10.68
2022-08-06T23:12:45.310Z,11.15
2022-08-06T23:15:29.911Z,10.82
2022-08-06T23:18:09.904Z,10.00
2022-08-06T23:20:41.425Z,9.43
2022-08-06T23:23:12.172Z,8.88
2022-08-06T23:26:00.099Z,9.73
2022-08-06T23:28:30.775Z,9.02
2022-08-06T23:31:03.076Z,9.77
2022-08-06T23:33:38.657Z,10.30
2022-08-06T23:36:14.899Z,10.17
2022-08-06T23:38:45.093Z,10.35
2022-08-06T23:41:24.431Z,9.63
2022-08-06T23:44:18.430Z,9.23
2022-08-06T23:46:51.333Z,9.05
2022-08-06T23:49:39.462Z,10.15
2022-08-06T23:52:23.413Z,8.85
2022-08-06T23:54:53.736Z,9.63
2022-08-06T23:57:32.826Z,9.93
